Nearby METAR Reports

 

KTAN - Taunton, Massachusetts, USA
Distance from station: W 5mi, 8km
Updated: 12/31/1969 7:00pm
NOT Current
unable to load KTAN data RC=
unable to load KTAN data RC=
 
KPYM - Plymouth, Massachusetts, USA
Distance from station: ENE 10mi, 16km
Updated: 06/21/2018 11:52am
Few Clouds
Few Clouds
 Wind from calm
Wind: Calm
Temperature: 79°F , 26°C
Dew Point: 61°F , 16°C
Humidity: 54%
Barometer: 29.78 inHg , 1008.5 hPa
Clouds: Few Clouds
Visibility: 10 miles , 16 km
Cloud details: Few Clouds 4700 ft
2018/06/21 15:52 KPYM 211552Z AUTO 00000KT 10SM FEW047 26/16 A2978 RMK AO2 SLP082 T02560156
 
KEWB - New Bedford, Massachusetts, USA
Distance from station: S 14mi, 23km
Updated: 06/21/2018 11:53am
Clear
Clear
 Wind from SE
Wind: SE 6 mph , 9 km/h
Temperature: 75°F , 24°C
Dew Point: 61°F , 16°C
Humidity: 61%
Barometer: 29.77 inHg , 1008.1 hPa
Clouds: Clear
Visibility: 10 miles , 16 km
2018/06/21 15:53 KEWB 211553Z 14005KT 10SM CLR 24/16 A2977 RMK AO2 SLP082 T02440161
KGHG - Marshfield, Massachusetts, USA
Distance from station: NE 20mi, 31km
Updated: 06/21/2018 11:55am
Clear
Clear
 Wind from NE
Wind: NE 8 mph , 13 km/h
Temperature: 77°F , 25°C
Dew Point: 55°F , 13°C
Humidity: 47%
Barometer: 29.78 inHg , 1008.5 hPa
Clouds: Clear
Visibility: 10 miles , 16 km
2018/06/21 15:55 KGHG 211555Z AUTO 04007KT 10SM CLR 25/13 A2978 RMK AO2
 
KOWD - Norwood, Massachusetts, USA
Distance from station: NNW 24mi, 39km
Updated: 06/21/2018 11:53am
Clear
Clear
 Wind from varies
Wind: varies 3 mph , 6 km/h
Temperature: 82°F , 28°C
Heat Index: 82°F , 28°C
Dew Point: 57°F , 14°C
Humidity: 42%
Barometer: 29.76 inHg , 1007.8 hPa
Clouds: Clear
Visibility: 10 miles , 16 km
2018/06/21 15:53 KOWD 211553Z VRB03KT 10SM CLR 28/14 A2976 RMK AO2 SLP078 T02830139
KMQE - East Milton, Massachusetts, USA
Distance from station: NNW 25mi, 40km
Updated: 06/21/2018 11:56am

 Wind from varies
Wind: varies 3 mph , 6 km/h
Temperature: 81°F , 27°C
Heat Index: 81°F , 27°C
Dew Point: 55°F , 13°C
Humidity: 42%
Barometer: 29.78 inHg , 1008.5 hPa
2018/06/21 15:56 KMQE 211556Z AUTO VRB03KT 27/13 A2978 RMK AO1 SLP090 T02670128
 
KFMH - Falmouth/Otis Ab, Massachusetts, USA
Distance from station: SE 27mi, 44km
Updated: 06/21/2018 11:55am
Clear
Clear
 Wind from varies
Wind: varies 7 mph , 11 km/h
Temperature: 75°F , 24°C
Dew Point: 64°F , 18°C
Humidity: 69%
Barometer: 29.79 inHg , 1008.8 hPa
Clouds: Clear
Visibility: 10 miles , 16 km
2018/06/21 15:55 KFMH 211555Z AUTO VRB06KT 10SM CLR 24/18 A2979 RMK AO2
KPVD - Providence/Green, Rhode Island, USA
Distance from station: WSW 29mi, 47km
Updated: 06/21/2018 11:51am
Few Clouds
Few Clouds
 Wind from SSE
Wind: SSE 7 mph , 11 km/h
Temperature: 75°F , 24°C
Dew Point: 59°F , 15°C
Humidity: 57%
Barometer: 29.79 inHg , 1008.8 hPa
Clouds: Few Clouds
Visibility: 10 miles , 16 km
Cloud details: Few Clouds 3500 ft
Few Clouds 14000 ft
2018/06/21 15:51 KPVD 211551Z 15006KT 10SM FEW035 FEW140 24/15 A2979 RMK AO2 SLP086 T02390150
 
KSFZ - Pawtucket, Rhode Island, USA
Distance from station: W 30mi, 48km
Updated: 06/21/2018 11:56am
Partly cloudy
Partly cloudy
 Wind from NE
Wind: NE 9 mph , 15 km/h
Temperature: 79°F , 26°C
Dew Point: 57°F , 14°C
Humidity: 48%
Barometer: 29.79 inHg , 1008.8 hPa
Clouds: Partly cloudy
Visibility: 10 miles , 16 km
Cloud details: Partly cloudy 4300 ft
2018/06/21 15:56 KSFZ 211556Z AUTO 05008KT 010V090 10SM SCT043 26/14 A2979 RMK AO2 SLP032 T02610144
KUUU - Newport, Rhode Island, USA
Distance from station: SW 31mi, 50km
Updated: 06/21/2018 11:53am
Few Clouds
Few Clouds
 Wind from S
Wind: S 7 mph , 11 km/h
Temperature: 72°F , 22°C
Dew Point: 64°F , 18°C
Humidity: 78%
Barometer: 29.79 inHg , 1008.8 hPa
Clouds: Few Clouds
Visibility: 10 miles , 16 km
Cloud details: Few Clouds 1400 ft
2018/06/21 15:53 KUUU 211553Z AUTO 18006KT 10SM FEW014 22/18 A2979 RMK AO2 SLP085 T02220183
 
KOQU - N. Kingston/Quon, Rhode Island, USA
Distance from station: SW 32mi, 52km
Updated: 06/21/2018 11:50am
Partly cloudy
Partly cloudy
 Wind from SSW
Wind: SSW 6 mph , 9 km/h
Temperature: 75°F , 24°C
Dew Point: 63°F , 17°C
Humidity: 65%
Barometer: 29.79 inHg , 1008.8 hPa
Clouds: Partly cloudy
Visibility: 15 miles , 24 km
Cloud details: Partly cloudy 5000 ft
2018/06/21 15:50 KOQU 211550Z 21005KT 15SM SCT050 24/17 A2979
KBOS - Boston, Massachusetts, USA
Distance from station: N 33mi, 54km
Updated: 06/21/2018 11:54am
Few Clouds
Few Clouds
 Wind from ESE
Wind: ESE 13 mph , 20 km/h
Temperature: 79°F , 26°C
Dew Point: 55°F , 13°C
Humidity: 45%
Barometer: 29.77 inHg , 1008.1 hPa
Clouds: Few Clouds
Visibility: 10 miles , 16 km
Cloud details: Few Clouds 4000 ft
Few Clouds 20000 ft
2018/06/21 15:54 KBOS 211554Z 11011KT 10SM FEW040 FEW200 26/13 A2977 RMK AO2 SLP082 T02610133
 
KHYA - Hyannis, Massachusetts, USA
Distance from station: ESE 37mi, 59km
Updated: 06/21/2018 11:56am
Clear
Clear
 Wind from SW
Wind: SW 9 mph , 15 km/h
Temperature: 73°F , 23°C
Dew Point: 64°F , 18°C
Humidity: 74%
Barometer: 29.78 inHg , 1008.5 hPa
Clouds: Clear
Visibility: 10 miles , 16 km
2018/06/21 15:56 KHYA 211556Z 23008KT 10SM CLR 23/18 A2978 RMK AO2 SLP083 T02280178
KMVY - Marthas Vineyard, Massachusetts, USA
Distance from station: SSE 37mi, 60km
Updated: 06/21/2018 11:53am
Partly cloudy
Partly cloudy
 Wind from SSW
Wind: SSW 6 mph , 9 km/h
Temperature: 70°F , 21°C
Dew Point: 64°F , 18°C
Humidity: 83%
Barometer: 29.79 inHg , 1008.8 hPa
Clouds: Partly cloudy
Visibility: 10 miles , 16 km
Cloud details: Partly cloudy 9500 ft
2018/06/21 15:53 KMVY 211553Z 20005KT 10SM SCT095 21/18 A2979 RMK AO2 SLP087 T02060183
 
KPVC - Provincetown, Massachusetts, USA
Distance from station: ENE 38mi, 61km
Updated: 06/21/2018 11:56am
Clear
Clear
 Wind from SW
Wind: SW 10 mph , 17 km/h
Temperature: 73°F , 23°C
Dew Point: 63°F , 17°C
Humidity: 69%
Barometer: 29.79 inHg , 1008.8 hPa
Clouds: Clear
Visibility: 10 miles , 16 km
2018/06/21 15:56 KPVC 211556Z AUTO 22009KT 10SM CLR 23/17 A2979 RMK AO2 SLP086 T02330167
KBED - Bedford, Massachusetts, USA
Distance from station: NNW 44mi, 72km
Updated: 06/21/2018 11:56am
Partly cloudy
Partly cloudy
 Wind from NNW
Wind: NNW 5 mph , 7 km/h
Temperature: 81°F , 27°C
Heat Index: 81°F , 27°C
Dew Point: 55°F , 13°C
Humidity: 42%
Barometer: 29.76 inHg , 1007.8 hPa
Clouds: Partly cloudy
Visibility: 10 miles , 16 km
Cloud details: Partly cloudy 5000 ft
2018/06/21 15:56 KBED 211556Z 33004KT 10SM SCT050 27/13 A2976 RMK AO2 SLP088 T02670133
 
KBVY - Beverly, Massachusetts, USA
Distance from station: 0 48mi, 77km
Updated: 06/21/2018 11:53am
Partly cloudy
Partly cloudy
 Wind from E
Wind: E 10 mph , 17 km/h
Temperature: 79°F , 26°C
Dew Point: 61°F , 16°C
Humidity: 54%
Barometer: 29.77 inHg , 1008.1 hPa
Clouds: Partly cloudy
Visibility: 10 miles , 16 km
Cloud details: Partly cloudy 4800 ft
2018/06/21 15:53 KBVY 211553Z 08009KT 10SM SCT048 26/16 A2977 RMK AO2 SLP077 T02560156
KCQX - Chatham, Massachusetts, USA
Distance from station: ESE 49mi, 80km
Updated: 06/21/2018 11:52am
Light rain, Clear
Light rain, Clear
 Wind from varies
Wind: varies 6 mph , 9 km/h
Temperature: 75°F , 24°C
Dew Point: 64°F , 18°C
Humidity: 69%
Barometer: 29.79 inHg , 1008.8 hPa
Summary: Light rain
Clouds: Clear
Visibility: 10 miles , 16 km
2018/06/21 15:52 KCQX 211552Z AUTO VRB05KT 10SM -RA CLR 24/18 A2979 RMK AO2 RAB12 SLP090 P0000 T02390178 TSNO